createdAt,value
2023-01-15T00:00:00.188Z,99.99
2023-01-15T00:01:00.217Z,99.99
2023-01-15T00:02:00.167Z,99.99
2023-01-15T00:03:00.214Z,99.99
2023-01-15T00:04:00.226Z,99.99
2023-01-15T00:05:00.151Z,99.99
2023-01-15T00:06:00.123Z,99.99
2023-01-15T00:07:00.117Z,99.99
2023-01-15T00:08:00.142Z,99.99
2023-01-15T00:09:00.093Z,99.99
2023-01-15T00:10:00.132Z,99.99
2023-01-15T00:11:00.093Z,99.99
2023-01-15T00:12:00.051Z,99.99
2023-01-15T00:13:00.053Z,99.99
2023-01-15T00:14:00.029Z,99.99
2023-01-15T00:15:00.027Z,99.99
2023-01-15T00:16:00.026Z,99.99
2023-01-15T00:17:00.005Z,99.99
2023-01-15T00:17:59.984Z,99.99
2023-01-15T00:18:59.980Z,99.99
2023-01-15T00:19:59.968Z,99.99
2023-01-15T00:20:59.980Z,99.99
2023-01-15T00:21:59.939Z,99.99
2023-01-15T00:22:59.937Z,99.99
2023-01-15T00:23:59.935Z,99.99
2023-01-15T00:24:59.911Z,99.99
2023-01-15T00:25:59.898Z,99.99
2023-01-15T00:26:59.901Z,99.99
2023-01-15T00:28:01.649Z,99.99
2023-01-15T00:28:59.874Z,99.99
2023-01-15T00:29:59.866Z,99.99
2023-01-15T00:30:59.895Z,99.99
2023-01-15T00:31:59.835Z,99.99
2023-01-15T00:32:59.834Z,99.99
2023-01-15T00:33:59.814Z,99.99
2023-01-15T00:34:59.814Z,99.99
2023-01-15T00:35:59.795Z,99.99
2023-01-15T00:36:59.797Z,99.99
2023-01-15T00:37:59.774Z,99.99
2023-01-15T00:38:59.763Z,99.99
2023-01-15T00:39:59.748Z,99.99
2023-01-15T00:40:59.753Z,99.99
2023-01-15T00:41:59.729Z,99.99
2023-01-15T00:42:59.732Z,99.99
2023-01-15T00:43:59.712Z,99.99
2023-01-15T00:44:59.699Z,99.99
2023-01-15T00:45:59.687Z,99.99
2023-01-15T00:46:59.681Z,99.99
2023-01-15T00:47:59.677Z,99.99
2023-01-15T00:48:59.657Z,99.99
2023-01-15T00:49:59.642Z,99.99
2023-01-15T00:50:59.640Z,99.99
2023-01-15T00:51:59.638Z,99.99
2023-01-15T00:52:59.623Z,99.99
2023-01-15T00:53:59.609Z,99.99
2023-01-15T00:54:59.602Z,99.99
2023-01-15T00:55:59.591Z,99.99
2023-01-15T00:56:59.581Z,99.99
2023-01-15T00:57:59.569Z,99.99
2023-01-15T00:58:59.561Z,99.99
2023-01-15T00:59:59.543Z,99.99
2023-01-15T01:00:59.672Z,99.99
2023-01-15T01:01:59.758Z,99.99
2023-01-15T01:02:59.522Z,99.99
2023-01-15T01:03:59.497Z,99.99
2023-01-15T01:04:59.509Z,99.99
2023-01-15T01:05:59.484Z,99.99
2023-01-15T01:06:59.477Z,99.99
2023-01-15T01:07:59.467Z,99.99
2023-01-15T01:08:59.460Z,99.99
2023-01-15T01:09:59.432Z,99.99
2023-01-15T01:10:59.430Z,99.99
2023-01-15T01:11:59.412Z,99.99
2023-01-15T01:12:59.414Z,99.99
2023-01-15T01:13:59.397Z,99.99
2023-01-15T01:14:59.405Z,99.99
2023-01-15T01:15:59.390Z,99.99
2023-01-15T01:16:59.374Z,99.99
2023-01-15T01:17:59.375Z,99.99
2023-01-15T01:18:59.377Z,99.99
2023-01-15T01:19:59.332Z,99.99
2023-01-15T01:20:59.334Z,99.99
2023-01-15T01:21:59.382Z,99.99
2023-01-15T01:22:59.317Z,99.99
2023-01-15T01:23:59.287Z,99.99
2023-01-15T01:24:59.288Z,99.99
2023-01-15T01:25:59.264Z,99.99
2023-01-15T01:26:59.260Z,99.99
2023-01-15T01:27:59.264Z,99.99
2023-01-15T01:28:59.239Z,99.99
2023-01-15T01:29:59.220Z,99.99
2023-01-15T01:30:59.218Z,99.99
2023-01-15T01:31:59.211Z,99.99
2023-01-15T01:32:59.219Z,99.99
2023-01-15T01:33:59.215Z,99.99
2023-01-15T01:34:59.171Z,99.99
2023-01-15T01:35:59.177Z,99.99
2023-01-15T01:36:59.157Z,99.87
2023-01-15T01:37:59.165Z,97.71
2023-01-15T01:38:59.130Z,98.63
2023-01-15T01:39:59.123Z,98.22
2023-01-15T01:40:59.126Z,98.94
2023-01-15T01:41:59.099Z,98.63
2023-01-15T01:42:59.098Z,98.63
2023-01-15T01:43:59.091Z,99.51
2023-01-15T01:44:59.072Z,99.81
2023-01-15T01:45:59.160Z,99.99
2023-01-15T01:46:59.046Z,99.99
2023-01-15T01:47:59.051Z,99.99
2023-01-15T01:48:59.027Z,99.99
2023-01-15T01:49:59.021Z,99.99
2023-01-15T01:50:59.016Z,99.99
2023-01-15T01:51:59.021Z,99.99
2023-01-15T01:52:58.996Z,99.96
2023-01-15T01:53:58.975Z,96.21
2023-01-15T01:54:58.967Z,95.70
2023-01-15T01:55:58.954Z,94.26
2023-01-15T01:56:58.940Z,94.67
2023-01-15T01:57:58.948Z,96.36
2023-01-15T01:58:58.917Z,94.81
2023-01-15T01:59:58.917Z,93.99
2023-01-15T02:00:59.049Z,93.48
2023-01-15T02:01:59.034Z,89.67
2023-01-15T02:02:58.884Z,89.71
2023-01-15T02:03:58.874Z,91.25
2023-01-15T02:04:58.859Z,90.84
2023-01-15T02:05:58.849Z,91.71
2023-01-15T02:06:58.871Z,90.78
2023-01-15T02:07:58.844Z,90.26
2023-01-15T02:08:58.819Z,89.13
2023-01-15T02:09:58.810Z,90.10
2023-01-15T02:10:58.792Z,90.51
2023-01-15T02:11:58.790Z,91.03
2023-01-15T02:12:58.777Z,92.47
2023-01-15T02:13:58.769Z,93.65
2023-01-15T02:14:58.786Z,94.27
2023-01-15T02:15:58.838Z,95.20
2023-01-15T02:16:58.730Z,92.51
2023-01-15T02:17:58.731Z,92.00
2023-01-15T02:18:58.720Z,91.89
2023-01-15T02:19:58.709Z,91.38
2023-01-15T02:20:58.694Z,90.91
2023-01-15T02:21:58.687Z,92.25
2023-01-15T02:22:58.679Z,93.59
2023-01-15T02:23:58.670Z,94.42
2023-01-15T02:24:58.660Z,95.24
2023-01-15T02:25:58.656Z,92.35
2023-01-15T02:26:58.636Z,94.82
2023-01-15T02:27:58.632Z,94.52
2023-01-15T02:28:58.625Z,94.67
2023-01-15T02:29:58.609Z,93.84
2023-01-15T02:30:58.614Z,95.70
2023-01-15T02:31:58.648Z,95.49
2023-01-15T02:32:58.585Z,95.07
2023-01-15T02:33:58.571Z,95.18
2023-01-15T02:35:00.602Z,94.35
2023-01-15T02:35:58.542Z,94.15
2023-01-15T02:36:58.537Z,94.87
2023-01-15T02:37:58.537Z,94.46
2023-01-15T02:38:58.521Z,95.18
2023-01-15T02:39:58.504Z,95.59
2023-01-15T02:40:58.498Z,96.62
2023-01-15T02:41:58.483Z,96.83
2023-01-15T02:42:58.476Z,97.34
2023-01-15T02:43:58.471Z,98.22
2023-01-15T02:44:58.452Z,98.94
2023-01-15T02:45:58.536Z,96.98
2023-01-15T02:46:58.435Z,96.98
2023-01-15T02:47:58.440Z,96.56
2023-01-15T02:48:58.419Z,95.32
2023-01-15T02:49:58.412Z,96.61
2023-01-15T02:50:58.392Z,97.64
2023-01-15T02:51:58.381Z,98.47
2023-01-15T02:52:58.387Z,98.88
2023-01-15T02:53:58.373Z,98.37
2023-01-15T02:54:58.361Z,97.28
2023-01-15T02:55:58.336Z,98.10
2023-01-15T02:56:58.338Z,98.31
2023-01-15T02:57:58.328Z,98.62
2023-01-15T02:58:58.310Z,99.14
2023-01-15T02:59:58.301Z,98.72
2023-01-15T03:00:58.366Z,98.00
2023-01-15T03:01:58.469Z,96.97
2023-01-15T03:02:58.284Z,96.70
2023-01-15T03:03:58.265Z,97.63
2023-01-15T03:04:58.251Z,97.84
2023-01-15T03:05:58.313Z,97.84
2023-01-15T03:06:58.228Z,97.42
2023-01-15T03:07:58.222Z,97.42
2023-01-15T03:08:58.211Z,97.42
2023-01-15T03:09:58.198Z,97.53
2023-01-15T03:10:58.192Z,97.74
2023-01-15T03:11:58.174Z,97.74
2023-01-15T03:12:58.164Z,97.74
2023-01-15T03:13:58.155Z,96.85
2023-01-15T03:14:58.148Z,96.23
2023-01-15T03:15:58.129Z,96.33
2023-01-15T03:16:58.141Z,96.85
2023-01-15T03:17:58.110Z,97.78
2023-01-15T03:18:58.110Z,97.36
2023-01-15T03:19:58.095Z,97.57
2023-01-15T03:20:58.915Z,96.85
2023-01-15T03:21:58.069Z,96.54
2023-01-15T03:22:58.068Z,96.23
2023-01-15T03:23:58.060Z,95.50
2023-01-15T03:24:58.046Z,96.44
2023-01-15T03:25:58.032Z,95.71
2023-01-15T03:26:58.021Z,94.68
2023-01-15T03:27:58.008Z,94.16
2023-01-15T03:28:58.009Z,93.89
2023-01-15T03:29:57.987Z,92.65
2023-01-15T03:30:58.016Z,92.85
2023-01-15T03:31:57.985Z,94.62
2023-01-15T03:32:57.959Z,92.85
2023-01-15T03:33:57.943Z,94.10
2023-01-15T03:34:57.953Z,92.76
2023-01-15T03:35:57.931Z,94.14
2023-01-15T03:36:57.930Z,92.80
2023-01-15T03:37:57.918Z,92.07
2023-01-15T03:38:57.902Z,92.49
2023-01-15T03:39:57.895Z,91.35
2023-01-15T03:40:57.889Z,88.45
2023-01-15T03:41:57.867Z,87.93
2023-01-15T03:42:57.864Z,91.14
2023-01-15T03:43:57.893Z,92.38
2023-01-15T03:44:57.837Z,89.89
2023-01-15T03:45:57.824Z,90.56
2023-01-15T03:46:57.824Z,89.62
2023-01-15T03:47:57.801Z,91.60
2023-01-15T03:48:57.819Z,90.66
2023-01-15T03:49:57.787Z,88.90
2023-01-15T03:50:57.777Z,92.01
2023-01-15T03:51:57.766Z,94.49
2023-01-15T03:52:57.765Z,95.64
2023-01-15T03:53:57.780Z,95.95
2023-01-15T03:54:57.734Z,96.47
2023-01-15T03:55:57.724Z,96.98
2023-01-15T03:56:57.726Z,97.50
2023-01-15T03:57:57.703Z,97.39
2023-01-15T03:58:57.709Z,97.29
2023-01-15T03:59:57.682Z,97.71
2023-01-15T04:00:57.815Z,98.33
2023-01-15T04:01:57.817Z,98.43
2023-01-15T04:02:57.657Z,98.54
2023-01-15T04:03:57.652Z,98.64
2023-01-15T04:04:57.637Z,97.65
2023-01-15T04:05:57.640Z,96.20
2023-01-15T04:06:57.615Z,95.89
2023-01-15T04:07:57.616Z,96.30
2023-01-15T04:08:57.600Z,96.92
2023-01-15T04:09:57.596Z,97.24
2023-01-15T04:10:57.573Z,97.24
2023-01-15T04:11:57.561Z,96.82
2023-01-15T04:12:57.548Z,96.51
2023-01-15T04:13:57.550Z,96.72
2023-01-15T04:14:57.530Z,96.30
2023-01-15T04:15:57.542Z,94.85
2023-01-15T04:16:57.510Z,94.54
2023-01-15T04:17:57.524Z,95.37
2023-01-15T04:18:57.492Z,95.57
2023-01-15T04:19:57.498Z,95.68
2023-01-15T04:20:57.478Z,95.06
2023-01-15T04:21:57.457Z,94.85
2023-01-15T04:22:57.453Z,93.71
2023-01-15T04:23:57.434Z,92.88
2023-01-15T04:24:57.431Z,93.71
2023-01-15T04:25:57.415Z,92.78
2023-01-15T04:26:57.424Z,93.29
2023-01-15T04:27:57.394Z,93.81
2023-01-15T04:28:57.394Z,95.26
2023-01-15T04:29:57.374Z,95.37
2023-01-15T04:30:57.403Z,95.68
2023-01-15T04:31:57.389Z,95.26
2023-01-15T04:32:57.346Z,95.37
2023-01-15T04:33:57.363Z,95.37
2023-01-15T04:34:57.346Z,95.57
2023-01-15T04:35:57.317Z,94.64
2023-01-15T04:36:57.315Z,94.23
2023-01-15T04:37:57.290Z,94.43
2023-01-15T04:38:57.302Z,94.33
2023-01-15T04:39:57.274Z,95.37
2023-01-15T04:40:57.265Z,95.78
2023-01-15T04:41:57.255Z,95.26
2023-01-15T04:42:57.247Z,95.57
2023-01-15T04:43:57.240Z,96.09
2023-01-15T04:44:57.224Z,95.57
2023-01-15T04:45:57.274Z,95.57
2023-01-15T04:46:57.213Z,94.02
2023-01-15T04:47:57.191Z,94.54
2023-01-15T04:48:57.208Z,95.16
2023-01-15T04:49:57.174Z,93.91
2023-01-15T04:50:57.162Z,93.50
2023-01-15T04:51:57.154Z,94.02
2023-01-15T04:52:57.147Z,94.02
2023-01-15T04:53:57.130Z,94.43
2023-01-15T04:54:57.133Z,92.57
2023-01-15T04:55:57.108Z,92.05
2023-01-15T04:56:57.106Z,93.40
2023-01-15T04:57:57.084Z,94.12
2023-01-15T04:58:57.086Z,92.05
2023-01-15T04:59:57.066Z,92.57
2023-01-15T05:00:57.089Z,91.33
2023-01-15T05:02:04.721Z,90.39
2023-01-15T05:02:57.048Z,90.50
2023-01-15T05:03:57.031Z,90.81
2023-01-15T05:04:57.021Z,88.94
2023-01-15T05:05:57.008Z,89.77
2023-01-15T05:06:57.013Z,91.43
2023-01-15T05:07:56.989Z,88.94
2023-01-15T05:08:56.987Z,89.46
2023-01-15T05:09:56.969Z,89.67
2023-01-15T05:10:56.972Z,86.97
2023-01-15T05:11:56.945Z,88.84
2023-01-15T05:12:56.944Z,88.42
2023-01-15T05:13:56.940Z,87.18
2023-01-15T05:14:56.920Z,87.07
2023-01-15T05:15:56.952Z,87.18
2023-01-15T05:16:56.906Z,87.07
2023-01-15T05:17:56.885Z,85.11
2023-01-15T05:18:56.897Z,85.38
2023-01-15T05:19:56.866Z,86.41
2023-01-15T05:20:56.854Z,85.11
2023-01-15T05:21:56.852Z,83.62
2023-01-15T05:22:56.836Z,81.75
2023-01-15T05:23:56.832Z,81.23
2023-01-15T05:24:56.817Z,82.27
2023-01-15T05:25:56.811Z,82.17
2023-01-15T05:26:56.807Z,79.99
2023-01-15T05:27:56.787Z,81.44
2023-01-15T05:28:56.783Z,81.85
2023-01-15T05:29:56.760Z,80.30
2023-01-15T05:30:56.810Z,78.81
2023-01-15T05:31:56.742Z,80.05
2023-01-15T05:32:56.737Z,80.61
2023-01-15T05:33:56.719Z,79.44
2023-01-15T05:34:56.719Z,80.71
2023-01-15T05:35:56.736Z,79.88
2023-01-15T05:36:56.693Z,80.30
2023-01-15T05:37:56.690Z,82.48
2023-01-15T05:38:56.687Z,80.51
2023-01-15T05:39:56.661Z,78.85
2023-01-15T05:40:56.659Z,79.99
2023-01-15T05:41:56.645Z,78.23
2023-01-15T05:42:56.633Z,78.92
2023-01-15T05:43:56.618Z,78.61
2023-01-15T05:44:56.622Z,78.09
2023-01-15T05:45:56.621Z,77.57
2023-01-15T05:46:56.597Z,78.30
2023-01-15T05:47:56.583Z,76.43
2023-01-15T05:48:56.575Z,77.47
2023-01-15T05:49:56.561Z,77.67
2023-01-15T05:50:56.562Z,77.78
2023-01-15T05:51:56.539Z,77.98
2023-01-15T05:52:56.534Z,78.40
2023-01-15T05:53:56.534Z,77.98
2023-01-15T05:54:56.523Z,78.19
2023-01-15T05:55:56.500Z,78.61
2023-01-15T05:56:56.493Z,76.95
2023-01-15T05:57:56.476Z,78.71
2023-01-15T05:58:56.478Z,79.33
2023-01-15T05:59:56.469Z,77.98
2023-01-15T06:00:56.577Z,79.44
2023-01-15T06:01:56.447Z,79.27
2023-01-15T06:02:56.481Z,79.06
2023-01-15T06:03:56.482Z,79.27
2023-01-15T06:04:56.416Z,80.09
2023-01-15T06:05:56.404Z,79.27
2023-01-15T06:06:56.397Z,80.40
2023-01-15T06:07:56.374Z,81.23
2023-01-15T06:08:56.368Z,81.02
2023-01-15T06:09:56.366Z,80.30
2023-01-15T06:10:56.355Z,81.23
2023-01-15T06:11:56.370Z,81.13
2023-01-15T06:12:56.337Z,81.34
2023-01-15T06:13:56.315Z,82.06
2023-01-15T06:14:56.332Z,81.85
2023-01-15T06:15:56.331Z,81.44
2023-01-15T06:16:56.296Z,80.40
2023-01-15T06:17:56.278Z,81.44
2023-01-15T06:18:56.271Z,82.48
2023-01-15T06:19:56.256Z,81.23
2023-01-15T06:20:56.248Z,81.54
2023-01-15T06:21:56.248Z,80.92
2023-01-15T06:22:56.228Z,81.34
2023-01-15T06:23:56.217Z,81.13
2023-01-15T06:24:56.208Z,81.34
2023-01-15T06:25:56.195Z,81.75
2023-01-15T06:26:56.192Z,81.75
2023-01-15T06:27:56.181Z,82.58
2023-01-15T06:28:56.178Z,82.17
2023-01-15T06:29:56.159Z,81.75
2023-01-15T06:30:56.146Z,82.58
2023-01-15T06:31:56.131Z,83.86
2023-01-15T06:32:56.128Z,82.62
2023-01-15T06:33:56.117Z,82.20
2023-01-15T06:34:56.117Z,82.93
2023-01-15T06:35:56.098Z,83.45
2023-01-15T06:36:56.085Z,83.45
2023-01-15T06:37:56.072Z,83.86
2023-01-15T06:38:56.070Z,83.86
2023-01-15T06:39:56.057Z,84.48
2023-01-15T06:40:56.040Z,84.90
2023-01-15T06:41:56.038Z,84.38
2023-01-15T06:42:56.025Z,85.00
2023-01-15T06:43:56.014Z,84.48
2023-01-15T06:44:56.002Z,84.48
2023-01-15T06:45:56.008Z,84.90
2023-01-15T06:46:56.026Z,85.42
2023-01-15T06:47:55.984Z,85.42
2023-01-15T06:48:55.956Z,84.69
2023-01-15T06:49:56.060Z,85.63
2023-01-15T06:50:55.942Z,85.31
2023-01-15T06:51:55.930Z,85.52
2023-01-15T06:52:55.922Z,85.42
2023-01-15T06:53:55.925Z,85.83
2023-01-15T06:54:55.905Z,85.73
2023-01-15T06:55:55.891Z,85.94
2023-01-15T06:56:55.884Z,86.04
2023-01-15T06:57:55.874Z,86.49
2023-01-15T06:58:55.809Z,86.39
2023-01-15T06:59:55.859Z,87.22
2023-01-15T07:00:56.007Z,86.70
2023-01-15T07:01:55.800Z,86.70
2023-01-15T07:02:55.772Z,86.91
2023-01-15T07:03:55.758Z,87.63
2023-01-15T07:04:55.802Z,88.05
2023-01-15T07:05:55.791Z,88.05
2023-01-15T07:06:55.733Z,88.15
2023-01-15T07:07:55.724Z,88.88
2023-01-15T07:08:55.702Z,88.88
2023-01-15T07:09:55.705Z,88.57
2023-01-15T07:10:55.683Z,89.09
2023-01-15T07:11:55.673Z,89.29
2023-01-15T07:12:55.664Z,88.98
2023-01-15T07:13:55.654Z,89.61
2023-01-15T07:14:55.642Z,89.40
2023-01-15T07:15:55.670Z,89.50
2023-01-15T07:16:55.661Z,89.75
2023-01-15T07:17:55.620Z,89.54
2023-01-15T07:18:55.597Z,89.65
2023-01-15T07:19:55.603Z,90.17
2023-01-15T07:20:55.609Z,89.75
2023-01-15T07:21:55.570Z,89.86
2023-01-15T07:22:55.583Z,90.17
2023-01-15T07:23:55.551Z,90.06
2023-01-15T07:24:55.538Z,90.17
2023-01-15T07:25:55.558Z,90.58
2023-01-15T07:26:55.513Z,91.00
2023-01-15T07:27:55.510Z,90.37
2023-01-15T07:28:55.504Z,90.37
2023-01-15T07:29:55.503Z,90.06
2023-01-15T07:30:55.477Z,90.27
2023-01-15T07:31:55.478Z,90.27
2023-01-15T07:32:55.473Z,89.54
2023-01-15T07:33:55.458Z,90.17
2023-01-15T07:34:55.433Z,89.96
2023-01-15T07:35:55.430Z,90.06
2023-01-15T07:36:55.423Z,90.37
2023-01-15T07:37:55.428Z,90.27
2023-01-15T07:38:55.402Z,90.17
2023-01-15T07:39:55.396Z,89.96
2023-01-15T07:40:55.375Z,90.27
2023-01-15T07:41:55.369Z,90.06
2023-01-15T07:42:55.356Z,89.96
2023-01-15T07:43:55.350Z,89.96
2023-01-15T07:44:55.339Z,89.86
2023-01-15T07:45:55.346Z,90.27
2023-01-15T07:46:55.311Z,90.06
2023-01-15T07:47:55.305Z,90.17
2023-01-15T07:48:55.309Z,90.37
2023-01-15T07:49:55.308Z,90.27
2023-01-15T07:50:55.275Z,90.48
2023-01-15T07:51:55.265Z,90.79
2023-01-15T07:52:55.272Z,90.48
2023-01-15T07:53:55.248Z,90.58
2023-01-15T07:54:55.237Z,90.48
2023-01-15T07:55:55.229Z,90.06
2023-01-15T07:56:55.211Z,90.48
2023-01-15T07:57:55.206Z,91.00
2023-01-15T07:58:55.189Z,90.79
2023-01-15T07:59:55.202Z,90.89
2023-01-15T08:00:55.209Z,90.89
2023-01-15T08:01:55.344Z,90.79
2023-01-15T08:02:55.155Z,90.89
2023-01-15T08:03:55.157Z,90.48
2023-01-15T08:04:55.138Z,91.00
2023-01-15T08:05:56.894Z,90.58
2023-01-15T08:06:55.104Z,90.69
2023-01-15T08:07:55.138Z,91.00
2023-01-15T08:08:55.091Z,91.00
2023-01-15T08:09:55.095Z,91.00
2023-01-15T08:10:55.077Z,91.10
2023-01-15T08:11:55.064Z,90.37
2023-01-15T08:12:57.229Z,90.06
2023-01-15T08:13:55.043Z,89.96
2023-01-15T08:14:55.040Z,89.75
2023-01-15T08:15:55.043Z,89.65
2023-01-15T08:16:55.008Z,89.86
2023-01-15T08:17:55.022Z,90.06
2023-01-15T08:18:54.995Z,90.06
2023-01-15T08:19:55.149Z,89.54
2023-01-15T08:20:54.967Z,90.27
2023-01-15T08:21:54.960Z,89.96
2023-01-15T08:22:54.947Z,89.13
2023-01-15T08:23:54.952Z,89.13
2023-01-15T08:24:54.933Z,89.23
2023-01-15T08:25:54.927Z,89.13
2023-01-15T08:26:54.903Z,89.03
2023-01-15T08:27:54.921Z,89.13
2023-01-15T08:28:54.890Z,89.54
2023-01-15T08:29:54.884Z,88.61
2023-01-15T08:30:54.866Z,88.51
2023-01-15T08:31:54.917Z,89.03
2023-01-15T08:32:54.849Z,88.30
2023-01-15T08:33:54.840Z,88.92
2023-01-15T08:34:54.839Z,88.51
2023-01-15T08:35:54.826Z,88.30
2023-01-15T08:36:54.801Z,88.20
2023-01-15T08:37:54.800Z,87.88
2023-01-15T08:38:54.792Z,87.78
2023-01-15T08:39:54.785Z,87.68
2023-01-15T08:40:54.761Z,87.99
2023-01-15T08:41:54.763Z,87.99
2023-01-15T08:42:56.434Z,87.68
2023-01-15T08:43:54.742Z,88.09
2023-01-15T08:44:54.725Z,87.88
2023-01-15T08:45:54.786Z,87.57
2023-01-15T08:46:54.708Z,87.57
2023-01-15T08:47:54.697Z,87.47
2023-01-15T08:48:54.757Z,87.57
2023-01-15T08:49:54.687Z,86.95
2023-01-15T08:50:54.656Z,87.05
2023-01-15T08:51:54.652Z,87.22
2023-01-15T08:52:54.644Z,87.05
2023-01-15T08:53:54.629Z,86.95
2023-01-15T08:54:54.636Z,86.74
2023-01-15T08:55:54.625Z,86.74
2023-01-15T08:56:54.604Z,86.85
2023-01-15T08:57:54.595Z,87.32
2023-01-15T08:58:54.581Z,87.16
2023-01-15T08:59:54.576Z,87.16
2023-01-15T09:00:54.663Z,87.37
2023-01-15T09:01:54.719Z,87.47
2023-01-15T09:02:54.537Z,87.37
2023-01-15T09:03:54.535Z,86.74
2023-01-15T09:04:54.613Z,86.91
2023-01-15T09:05:54.514Z,87.01
2023-01-15T09:06:54.498Z,87.12
2023-01-15T09:07:54.490Z,86.49
2023-01-15T09:08:54.484Z,87.22
2023-01-15T09:09:54.476Z,87.12
2023-01-15T09:10:54.484Z,87.01
2023-01-15T09:11:54.453Z,86.60
2023-01-15T09:12:54.437Z,86.60
2023-01-15T09:13:54.451Z,86.60
2023-01-15T09:14:58.050Z,87.01
2023-01-15T09:15:54.484Z,86.80
2023-01-15T09:16:54.468Z,86.80
2023-01-15T09:17:54.415Z,86.91
2023-01-15T09:18:54.376Z,86.39
2023-01-15T09:19:54.382Z,86.18
2023-01-15T09:20:54.364Z,85.97
2023-01-15T09:21:54.373Z,86.70
2023-01-15T09:22:54.339Z,86.08
2023-01-15T09:23:54.339Z,85.87
2023-01-15T09:24:54.337Z,86.18
2023-01-15T09:25:54.313Z,86.08
2023-01-15T09:26:54.296Z,86.91
2023-01-15T09:27:54.287Z,86.80
2023-01-15T09:28:54.286Z,86.08
2023-01-15T09:29:54.276Z,86.60
2023-01-15T09:30:54.278Z,87.01
2023-01-15T09:31:54.254Z,86.60
2023-01-15T09:32:54.271Z,86.29
2023-01-15T09:33:54.287Z,86.80
2023-01-15T09:34:54.236Z,86.80
2023-01-15T09:35:54.299Z,86.80
2023-01-15T09:36:54.197Z,86.49
2023-01-15T09:37:54.187Z,86.18
2023-01-15T09:38:54.174Z,86.91
2023-01-15T09:39:54.172Z,86.70
2023-01-15T09:40:54.163Z,86.29
2023-01-15T09:41:54.600Z,86.29
2023-01-15T09:42:54.130Z,86.70
2023-01-15T09:43:54.141Z,85.66
2023-01-15T09:44:54.121Z,85.87
2023-01-15T09:45:54.180Z,86.60
2023-01-15T09:46:54.099Z,86.49
2023-01-15T09:47:54.089Z,86.39
2023-01-15T09:48:54.089Z,86.70
2023-01-15T09:49:54.110Z,86.39
2023-01-15T09:50:54.060Z,86.80
2023-01-15T09:51:54.052Z,85.87
2023-01-15T09:52:54.034Z,86.08
2023-01-15T09:53:54.025Z,85.83
2023-01-15T09:54:54.013Z,86.70
2023-01-15T09:55:54.070Z,86.25
2023-01-15T09:56:53.990Z,86.15
2023-01-15T09:57:53.984Z,85.63
2023-01-15T09:58:53.972Z,85.63
2023-01-15T09:59:53.964Z,85.42
2023-01-15T10:00:53.965Z,85.42
2023-01-15T10:01:53.953Z,85.52
2023-01-15T10:02:53.960Z,84.90
2023-01-15T10:03:53.945Z,85.52
2023-01-15T10:04:53.915Z,85.00
2023-01-15T10:05:53.981Z,85.42
2023-01-15T10:06:53.886Z,85.21
2023-01-15T10:07:53.881Z,85.21
2023-01-15T10:08:53.868Z,85.21
2023-01-15T10:09:53.865Z,85.52
2023-01-15T10:10:53.855Z,85.73
2023-01-15T10:11:53.856Z,85.63
2023-01-15T10:12:53.830Z,85.00
2023-01-15T10:13:53.817Z,85.21
2023-01-15T10:14:53.807Z,84.80
2023-01-15T10:15:53.868Z,84.17
2023-01-15T10:16:53.788Z,84.80
2023-01-15T10:17:53.821Z,85.00
2023-01-15T10:18:53.781Z,84.80
2023-01-15T10:19:53.799Z,85.11
2023-01-15T10:20:53.758Z,84.69
2023-01-15T10:21:53.741Z,85.63
2023-01-15T10:22:53.725Z,85.31
2023-01-15T10:23:53.756Z,85.21
2023-01-15T10:24:53.712Z,84.69
2023-01-15T10:25:53.749Z,84.69
2023-01-15T10:26:53.711Z,85.06
2023-01-15T10:27:53.677Z,84.65
2023-01-15T10:28:53.674Z,84.48
2023-01-15T10:29:53.656Z,84.90
2023-01-15T10:30:53.680Z,85.38
2023-01-15T10:31:53.635Z,84.55
2023-01-15T10:33:01.924Z,84.59
2023-01-15T10:33:53.624Z,85.06
2023-01-15T10:34:53.612Z,84.48
2023-01-15T10:35:53.645Z,84.59
2023-01-15T10:36:53.612Z,84.59
2023-01-15T10:37:53.580Z,84.48
2023-01-15T10:38:53.558Z,83.86
2023-01-15T10:39:53.574Z,84.65
2023-01-15T10:40:53.551Z,84.03
2023-01-15T10:41:53.545Z,84.44
2023-01-15T10:42:53.536Z,84.23
2023-01-15T10:43:53.516Z,84.96
2023-01-15T10:44:53.519Z,83.51
2023-01-15T10:45:53.617Z,84.03
2023-01-15T10:46:55.115Z,82.68
2023-01-15T10:47:53.512Z,82.89
2023-01-15T10:48:53.464Z,83.00
2023-01-15T10:49:53.459Z,82.79
2023-01-15T10:50:53.456Z,83.10
2023-01-15T10:51:53.440Z,82.79
2023-01-15T10:52:53.423Z,82.48
2023-01-15T10:53:53.429Z,82.89
2023-01-15T10:54:53.402Z,82.48
2023-01-15T10:55:53.407Z,82.17
2023-01-15T10:56:53.391Z,81.85
2023-01-15T10:58:09.069Z,82.27
2023-01-15T10:58:53.362Z,82.89
2023-01-15T10:59:53.353Z,82.68
2023-01-15T11:00:53.363Z,82.89
2023-01-15T11:01:53.501Z,81.44
2023-01-15T11:02:53.353Z,81.44
2023-01-15T11:03:53.311Z,81.23
2023-01-15T11:04:53.301Z,81.54
2023-01-15T11:05:53.308Z,81.65
2023-01-15T11:06:53.282Z,81.54
2023-01-15T11:09:11.225Z,81.85
2023-01-15T11:09:53.250Z,80.82
2023-01-15T11:10:53.262Z,80.71
2023-01-15T11:11:53.228Z,80.92
2023-01-15T11:12:53.235Z,81.65
2023-01-15T11:13:53.213Z,80.30
2023-01-15T11:14:53.198Z,79.44
2023-01-15T11:15:53.254Z,80.16
2023-01-15T11:16:53.187Z,80.16
2023-01-15T11:17:53.168Z,79.54
2023-01-15T11:18:53.163Z,79.88
2023-01-15T11:19:53.160Z,80.61
2023-01-15T11:20:53.162Z,80.71
2023-01-15T11:21:53.140Z,81.44
2023-01-15T11:22:53.129Z,81.23
2023-01-15T11:23:53.110Z,81.96
2023-01-15T11:24:53.104Z,81.92
2023-01-15T11:25:53.125Z,81.44
2023-01-15T11:26:53.083Z,81.44
2023-01-15T11:27:53.071Z,82.06
2023-01-15T11:28:53.069Z,81.02
2023-01-15T11:29:53.061Z,80.61
2023-01-15T11:30:53.112Z,80.92
2023-01-15T11:31:53.035Z,80.40
2023-01-15T11:32:53.031Z,80.16
2023-01-15T11:33:53.001Z,78.85
2023-01-15T11:34:52.996Z,77.43
2023-01-15T11:35:53.001Z,76.50
2023-01-15T11:36:52.980Z,77.22
2023-01-15T11:37:52.955Z,77.22
2023-01-15T11:38:52.956Z,76.09
2023-01-15T11:39:52.937Z,76.12
2023-01-15T11:40:53.652Z,76.43
2023-01-15T11:41:52.917Z,76.84
2023-01-15T11:42:52.968Z,77.15
2023-01-15T11:43:52.906Z,75.81
2023-01-15T11:44:52.893Z,76.67
2023-01-15T11:45:52.890Z,76.36
2023-01-15T11:46:52.873Z,76.15
2023-01-15T11:47:52.881Z,76.12
2023-01-15T11:48:52.852Z,75.09
2023-01-15T11:49:52.848Z,74.95
2023-01-15T11:50:52.852Z,74.43
2023-01-15T11:51:52.854Z,73.77
2023-01-15T11:52:52.808Z,74.63
2023-01-15T11:53:52.797Z,74.50
2023-01-15T11:54:52.800Z,75.01
2023-01-15T11:55:52.790Z,74.60
2023-01-15T11:56:52.793Z,74.29
2023-01-15T11:57:52.789Z,73.60
2023-01-15T11:58:52.752Z,74.43
2023-01-15T11:59:52.738Z,74.63
2023-01-15T12:00:52.727Z,75.09
2023-01-15T12:01:52.713Z,74.67
2023-01-15T12:02:52.740Z,76.26
2023-01-15T12:03:52.797Z,76.78
2023-01-15T12:04:52.725Z,77.19
2023-01-15T12:05:52.672Z,76.88
2023-01-15T12:06:52.671Z,76.74
2023-01-15T12:07:52.675Z,77.29
2023-01-15T12:08:52.660Z,77.47
2023-01-15T12:09:52.629Z,77.15
2023-01-15T12:10:52.627Z,76.74
2023-01-15T12:11:52.621Z,77.67
2023-01-15T12:12:52.602Z,76.18
2023-01-15T12:13:52.605Z,75.78
2023-01-15T12:14:52.609Z,75.39
2023-01-15T12:15:52.575Z,73.60
2023-01-15T12:16:52.610Z,72.23
2023-01-15T12:17:52.547Z,70.44
2023-01-15T12:18:52.610Z,69.89
2023-01-15T12:19:52.523Z,70.58
2023-01-15T12:20:52.558Z,69.65
2023-01-15T12:21:52.523Z,69.07
2023-01-15T12:22:52.520Z,69.14
2023-01-15T12:23:52.502Z,68.32
2023-01-15T12:24:52.512Z,67.97
2023-01-15T12:25:52.485Z,66.94
2023-01-15T12:26:52.476Z,66.91
2023-01-15T12:27:52.518Z,67.43
2023-01-15T12:28:52.463Z,66.74
2023-01-15T12:29:52.446Z,66.50
2023-01-15T12:30:52.424Z,67.05
2023-01-15T12:31:52.402Z,66.77
2023-01-15T12:32:52.411Z,68.14
2023-01-15T12:33:52.424Z,68.38
2023-01-15T12:34:52.388Z,69.10
2023-01-15T12:35:52.366Z,69.03
2023-01-15T12:36:52.393Z,70.17
2023-01-15T12:37:52.343Z,68.96
2023-01-15T12:38:52.336Z,68.88
2023-01-15T12:39:52.321Z,70.12
2023-01-15T12:40:52.322Z,71.16
2023-01-15T12:41:52.325Z,70.54
2023-01-15T12:42:52.306Z,69.74
2023-01-15T12:43:52.296Z,68.88
2023-01-15T12:44:52.269Z,69.74
2023-01-15T12:45:52.284Z,69.95
2023-01-15T12:46:52.355Z,68.96
2023-01-15T12:47:52.245Z,68.62
2023-01-15T12:48:52.240Z,67.17
2023-01-15T12:49:52.228Z,67.17
2023-01-15T12:50:52.235Z,67.24
2023-01-15T12:51:52.205Z,65.98
2023-01-15T12:52:52.183Z,65.15